Terminal Aerodrome Forecast
Issued by NWS

Home | Current Version | Previous Version | Text Only | Print | Product List | Glossary On
Versions: 1 2 3 4 5 6 7 8 9 10 11 12 13
955
FTAK31 PAJN 251732
TAFAKT
TAF
PAKT 251732Z 2518/2618 13007KT P6SM SCT020 OVC050
     FM252200 13007KT P6SM -RA OVC030
     FM260200 14008KT 5SM -RA SCT010 OVC025
     FM260500 14007KT 4SM -RA BR SCT007 BKN015 OVC025
     FM260900 14007KT 4SM -RA BR BKN007 OVC015
      AMD LTD TO CLD VIS AND WIND 2606/2615=

USA.gov is the U.S. government's official web portal to all federal, state and local government web resources and services.